sensor_id;sensor_type;location;lat;lon;timestamp;temperature;humidity
17442;DHT22;8838;50.144;8.176;2023-07-29T00:01:35;17.50;99.90
17442;DHT22;8838;50.144;8.176;2023-07-29T00:04:02;17.60;99.90
17442;DHT22;8838;50.144;8.176;2023-07-29T00:06:30;17.60;99.90
17442;DHT22;8838;50.144;8.176;2023-07-29T00:08:57;17.60;99.90
17442;DHT22;8838;50.144;8.176;2023-07-29T00:11:25;17.60;99.90
17442;DHT22;8838;50.144;8.176;2023-07-29T00:13:52;17.60;99.90
17442;DHT22;8838;50.144;8.176;2023-07-29T00:16:18;17.50;99.90
17442;DHT22;8838;50.144;8.176;2023-07-29T00:18:47;17.50;99.90
17442;DHT22;8838;50.144;8.176;2023-07-29T00:21:14;17.50;99.90
17442;DHT22;8838;50.144;8.176;2023-07-29T00:23:45;17.50;99.90
17442;DHT22;8838;50.144;8.176;2023-07-29T00:26:11;17.50;99.90
17442;DHT22;8838;50.144;8.176;2023-07-29T00:28:40;17.40;99.90
17442;DHT22;8838;50.144;8.176;2023-07-29T00:31:07;17.40;99.90
17442;DHT22;8838;50.144;8.176;2023-07-29T00:33:33;17.40;99.90
17442;DHT22;8838;50.144;8.176;2023-07-29T00:36:00;17.40;99.90
17442;DHT22;8838;50.144;8.176;2023-07-29T00:38:28;17.50;99.90
17442;DHT22;8838;50.144;8.176;2023-07-29T00:40:57;17.50;99.90
17442;DHT22;8838;50.144;8.176;2023-07-29T00:43:24;17.50;99.90
17442;DHT22;8838;50.144;8.176;2023-07-29T00:45:52;17.50;99.90
17442;DHT22;8838;50.144;8.176;2023-07-29T00:48:19;17.50;99.90
17442;DHT22;8838;50.144;8.176;2023-07-29T00:50:47;17.60;99.90
17442;DHT22;8838;50.144;8.176;2023-07-29T00:53:13;17.60;99.90
17442;DHT22;8838;50.144;8.176;2023-07-29T00:55:39;17.60;99.90
17442;DHT22;8838;50.144;8.176;2023-07-29T00:58:07;17.60;99.90
17442;DHT22;8838;50.144;8.176;2023-07-29T01:00:34;17.60;99.90
17442;DHT22;8838;50.144;8.176;2023-07-29T01:03:02;17.60;99.90
17442;DHT22;8838;50.144;8.176;2023-07-29T01:05:33;17.50;99.90
17442;DHT22;8838;50.144;8.176;2023-07-29T01:08:07;17.60;99.90
17442;DHT22;8838;50.144;8.176;2023-07-29T01:10:43;17.50;99.90
17442;DHT22;8838;50.144;8.176;2023-07-29T01:13:17;17.50;99.90
17442;DHT22;8838;50.144;8.176;2023-07-29T01:15:50;17.50;99.90
17442;DHT22;8838;50.144;8.176;2023-07-29T01:18:23;17.50;99.90
17442;DHT22;8838;50.144;8.176;2023-07-29T01:20:53;17.50;99.90
17442;DHT22;8838;50.144;8.176;2023-07-29T01:23:25;17.60;99.90
17442;DHT22;8838;50.144;8.176;2023-07-29T01:25:55;17.60;99.90
17442;DHT22;8838;50.144;8.176;2023-07-29T01:28:22;17.60;99.90
17442;DHT22;8838;50.144;8.176;2023-07-29T01:30:51;17.60;99.90
17442;DHT22;8838;50.144;8.176;2023-07-29T01:33:26;17.60;99.90
17442;DHT22;8838;50.144;8.176;2023-07-29T01:35:58;17.60;99.90
17442;DHT22;8838;50.144;8.176;2023-07-29T01:38:31;17.60;99.90
17442;DHT22;8838;50.144;8.176;2023-07-29T01:41:01;17.60;99.90
17442;DHT22;8838;50.144;8.176;2023-07-29T01:43:28;17.60;99.90
17442;DHT22;8838;50.144;8.176;2023-07-29T01:45:55;17.60;99.90
17442;DHT22;8838;50.144;8.176;2023-07-29T01:48:22;17.60;99.90
17442;DHT22;8838;50.144;8.176;2023-07-29T01:50:49;17.60;99.90
17442;DHT22;8838;50.144;8.176;2023-07-29T01:53:16;17.60;99.90
17442;DHT22;8838;50.144;8.176;2023-07-29T01:55:44;17.50;99.90
17442;DHT22;8838;50.144;8.176;2023-07-29T01:58:11;17.50;99.90
17442;DHT22;8838;50.144;8.176;2023-07-29T02:00:38;17.50;99.90
17442;DHT22;8838;50.144;8.176;2023-07-29T02:03:05;17.50;99.90
17442;DHT22;8838;50.144;8.176;2023-07-29T02:05:32;17.50;99.90
17442;DHT22;8838;50.144;8.176;2023-07-29T02:07:59;17.50;99.90
17442;DHT22;8838;50.144;8.176;2023-07-29T02:10:26;17.50;99.90
17442;DHT22;8838;50.144;8.176;2023-07-29T02:12:54;17.40;99.90
17442;DHT22;8838;50.144;8.176;2023-07-29T02:15:20;17.50;99.90
17442;DHT22;8838;50.144;8.176;2023-07-29T02:17:50;17.40;99.90
17442;DHT22;8838;50.144;8.176;2023-07-29T02:20:17;17.40;99.90
17442;DHT22;8838;50.144;8.176;2023-07-29T02:22:43;17.40;99.90
17442;DHT22;8838;50.144;8.176;2023-07-29T02:25:10;17.50;99.90
17442;DHT22;8838;50.144;8.176;2023-07-29T02:27:37;17.40;99.90
17442;DHT22;8838;50.144;8.176;2023-07-29T02:30:07;17.50;99.90
17442;DHT22;8838;50.144;8.176;2023-07-29T02:32:35;17.40;99.90
17442;DHT22;8838;50.144;8.176;2023-07-29T02:35:02;17.40;99.90
17442;DHT22;8838;50.144;8.176;2023-07-29T02:37:30;17.50;99.90
17442;DHT22;8838;50.144;8.176;2023-07-29T02:39:57;17.50;99.90
17442;DHT22;8838;50.144;8.176;2023-07-29T02:42:23;17.50;99.90
17442;DHT22;8838;50.144;8.176;2023-07-29T02:44:50;17.50;99.90
17442;DHT22;8838;50.144;8.176;2023-07-29T02:47:18;17.50;99.90
17442;DHT22;8838;50.144;8.176;2023-07-29T02:49:45;17.50;99.90
17442;DHT22;8838;50.144;8.176;2023-07-29T02:52:12;17.50;99.90
17442;DHT22;8838;50.144;8.176;2023-07-29T02:54:39;17.50;99.90
17442;DHT22;8838;50.144;8.176;2023-07-29T02:57:06;17.50;99.90
17442;DHT22;8838;50.144;8.176;2023-07-29T02:59:32;17.50;99.90
17442;DHT22;8838;50.144;8.176;2023-07-29T03:01:59;17.40;99.90
17442;DHT22;8838;50.144;8.176;2023-07-29T03:04:27;17.40;99.90
17442;DHT22;8838;50.144;8.176;2023-07-29T03:06:54;17.40;99.90
17442;DHT22;8838;50.144;8.176;2023-07-29T03:09:21;17.30;99.90
17442;DHT22;8838;50.144;8.176;2023-07-29T03:11:48;17.30;99.90
17442;DHT22;8838;50.144;8.176;2023-07-29T03:14:14;17.30;99.90
17442;DHT22;8838;50.144;8.176;2023-07-29T03:16:41;17.20;99.90
17442;DHT22;8838;50.144;8.176;2023-07-29T03:19:08;17.20;99.90
17442;DHT22;8838;50.144;8.176;2023-07-29T03:21:37;17.20;99.90
17442;DHT22;8838;50.144;8.176;2023-07-29T03:24:04;17.20;99.90
17442;DHT22;8838;50.144;8.176;2023-07-29T03:26:32;17.20;99.90
17442;DHT22;8838;50.144;8.176;2023-07-29T03:28:59;17.30;99.90
17442;DHT22;8838;50.144;8.176;2023-07-29T03:31:25;17.30;99.90
17442;DHT22;8838;50.144;8.176;2023-07-29T03:33:53;17.30;99.90
17442;DHT22;8838;50.144;8.176;2023-07-29T03:36:21;17.30;99.90
17442;DHT22;8838;50.144;8.176;2023-07-29T03:38:49;17.30;99.90
17442;DHT22;8838;50.144;8.176;2023-07-29T03:41:16;17.30;99.90
17442;DHT22;8838;50.144;8.176;2023-07-29T03:43:42;17.40;99.90
17442;DHT22;8838;50.144;8.176;2023-07-29T03:46:09;17.40;99.90
17442;DHT22;8838;50.144;8.176;2023-07-29T03:48:36;17.40;99.90
17442;DHT22;8838;50.144;8.176;2023-07-29T03:51:03;17.40;99.90
17442;DHT22;8838;50.144;8.176;2023-07-29T03:53:29;17.50;99.90
17442;DHT22;8838;50.144;8.176;2023-07-29T03:55:58;17.50;99.90
17442;DHT22;8838;50.144;8.176;2023-07-29T03:58:24;17.50;99.90
17442;DHT22;8838;50.144;8.176;2023-07-29T04:00:51;17.50;99.90
17442;DHT22;8838;50.144;8.176;2023-07-29T04:03:18;17.50;99.90
17442;DHT22;8838;50.144;8.176;2023-07-29T04:05:44;17.50;99.90
17442;DHT22;8838;50.144;8.176;2023-07-29T04:08:11;17.50;99.90
17442;DHT22;8838;50.144;8.176;2023-07-29T04:10:38;17.50;99.90
17442;DHT22;8838;50.144;8.176;2023-07-29T04:13:06;17.60;99.90
17442;DHT22;8838;50.144;8.176;2023-07-29T04:15:36;17.60;99.90
17442;DHT22;8838;50.144;8.176;2023-07-29T04:18:03;17.50;99.90
17442;DHT22;8838;50.144;8.176;2023-07-29T04:20:30;17.50;99.90
17442;DHT22;8838;50.144;8.176;2023-07-29T04:22:57;17.50;99.90
17442;DHT22;8838;50.144;8.176;2023-07-29T04:25:24;17.40;99.90
17442;DHT22;8838;50.144;8.176;2023-07-29T04:27:51;17.40;99.90
17442;DHT22;8838;50.144;8.176;2023-07-29T04:30:19;17.40;99.90
17442;DHT22;8838;50.144;8.176;2023-07-29T04:32:46;17.40;99.90
17442;DHT22;8838;50.144;8.176;2023-07-29T04:35:14;17.30;99.90
17442;DHT22;8838;50.144;8.176;2023-07-29T04:37:44;17.40;99.90
17442;DHT22;8838;50.144;8.176;2023-07-29T04:40:11;17.40;99.90
17442;DHT22;8838;50.144;8.176;2023-07-29T04:42:37;17.40;99.90
17442;DHT22;8838;50.144;8.176;2023-07-29T04:45:05;17.40;99.90
17442;DHT22;8838;50.144;8.176;2023-07-29T04:47:34;17.50;99.90
17442;DHT22;8838;50.144;8.176;2023-07-29T04:50:01;17.50;99.90
17442;DHT22;8838;50.144;8.176;2023-07-29T04:52:28;17.50;99.90
17442;DHT22;8838;50.144;8.176;2023-07-29T04:54:54;17.60;99.90
17442;DHT22;8838;50.144;8.176;2023-07-29T04:57:21;17.60;99.90
17442;DHT22;8838;50.144;8.176;2023-07-29T04:59:48;17.60;99.90
17442;DHT22;8838;50.144;8.176;2023-07-29T05:02:15;17.60;99.90
17442;DHT22;8838;50.144;8.176;2023-07-29T05:04:43;17.60;99.90
17442;DHT22;8838;50.144;8.176;2023-07-29T05:07:10;17.70;99.90
17442;DHT22;8838;50.144;8.176;2023-07-29T05:09:36;17.70;99.90
17442;DHT22;8838;50.144;8.176;2023-07-29T05:12:04;17.70;99.90
17442;DHT22;8838;50.144;8.176;2023-07-29T05:14:31;17.70;99.90
17442;DHT22;8838;50.144;8.176;2023-07-29T05:16:59;17.80;99.90
17442;DHT22;8838;50.144;8.176;2023-07-29T05:19:26;17.80;99.90
17442;DHT22;8838;50.144;8.176;2023-07-29T05:21:56;17.90;99.90
17442;DHT22;8838;50.144;8.176;2023-07-29T05:24:23;17.90;99.90
17442;DHT22;8838;50.144;8.176;2023-07-29T05:26:50;18.00;99.90
17442;DHT22;8838;50.144;8.176;2023-07-29T05:29:16;18.00;99.90
17442;DHT22;8838;50.144;8.176;2023-07-29T05:31:44;18.10;99.90
17442;DHT22;8838;50.144;8.176;2023-07-29T05:34:11;18.10;99.90
17442;DHT22;8838;50.144;8.176;2023-07-29T05:36:39;18.20;99.90
17442;DHT22;8838;50.144;8.176;2023-07-29T05:39:07;18.30;99.90
17442;DHT22;8838;50.144;8.176;2023-07-29T05:41:34;18.40;99.90
17442;DHT22;8838;50.144;8.176;2023-07-29T05:44:01;18.40;99.90
17442;DHT22;8838;50.144;8.176;2023-07-29T05:46:27;18.40;99.90
17442;DHT22;8838;50.144;8.176;2023-07-29T05:48:54;18.30;99.90
17442;DHT22;8838;50.144;8.176;2023-07-29T05:51:21;18.30;99.90
17442;DHT22;8838;50.144;8.176;2023-07-29T05:53:48;18.30;99.90
17442;DHT22;8838;50.144;8.176;2023-07-29T05:56:16;18.30;99.90
17442;DHT22;8838;50.144;8.176;2023-07-29T05:58:43;18.20;99.90
17442;DHT22;8838;50.144;8.176;2023-07-29T06:01:09;18.30;99.90
17442;DHT22;8838;50.144;8.176;2023-07-29T06:03:36;18.30;99.90
17442;DHT22;8838;50.144;8.176;2023-07-29T06:06:03;18.30;99.90
17442;DHT22;8838;50.144;8.176;2023-07-29T06:08:30;18.20;99.90
17442;DHT22;8838;50.144;8.176;2023-07-29T06:10:59;18.10;99.90
17442;DHT22;8838;50.144;8.176;2023-07-29T06:13:27;18.10;99.90
17442;DHT22;8838;50.144;8.176;2023-07-29T06:15:54;18.10;99.90
17442;DHT22;8838;50.144;8.176;2023-07-29T06:18:21;18.10;99.90
17442;DHT22;8838;50.144;8.176;2023-07-29T06:20:48;18.10;99.90
17442;DHT22;8838;50.144;8.176;2023-07-29T06:23:15;18.00;99.90
17442;DHT22;8838;50.144;8.176;2023-07-29T06:25:41;18.00;99.90
17442;DHT22;8838;50.144;8.176;2023-07-29T06:28:09;18.00;99.90
17442;DHT22;8838;50.144;8.176;2023-07-29T06:30:37;18.00;99.90
17442;DHT22;8838;50.144;8.176;2023-07-29T06:33:06;18.00;99.90
17442;DHT22;8838;50.144;8.176;2023-07-29T06:35:34;17.90;99.90
17442;DHT22;8838;50.144;8.176;2023-07-29T06:38:01;17.90;99.90
17442;DHT22;8838;50.144;8.176;2023-07-29T06:40:27;18.00;99.90
17442;DHT22;8838;50.144;8.176;2023-07-29T06:42:54;18.00;99.90
17442;DHT22;8838;50.144;8.176;2023-07-29T06:45:21;18.00;99.90
17442;DHT22;8838;50.144;8.176;2023-07-29T06:47:49;17.90;99.90
17442;DHT22;8838;50.144;8.176;2023-07-29T06:50:16;17.90;99.90
17442;DHT22;8838;50.144;8.176;2023-07-29T06:52:43;17.90;99.90
17442;DHT22;8838;50.144;8.176;2023-07-29T06:55:10;17.90;99.90
17442;DHT22;8838;50.144;8.176;2023-07-29T06:57:36;17.80;99.90
17442;DHT22;8838;50.144;8.176;2023-07-29T07:00:04;17.70;99.90
17442;DHT22;8838;50.144;8.176;2023-07-29T07:02:31;17.70;99.90
17442;DHT22;8838;50.144;8.176;2023-07-29T07:05:02;17.80;99.90
17442;DHT22;8838;50.144;8.176;2023-07-29T07:07:29;17.80;99.90
17442;DHT22;8838;50.144;8.176;2023-07-29T07:09:55;17.90;99.90
17442;DHT22;8838;50.144;8.176;2023-07-29T07:12:22;17.90;99.90
17442;DHT22;8838;50.144;8.176;2023-07-29T07:14:49;18.00;99.90
17442;DHT22;8838;50.144;8.176;2023-07-29T07:17:16;18.00;99.90
17442;DHT22;8838;50.144;8.176;2023-07-29T07:19:43;18.10;99.90
17442;DHT22;8838;50.144;8.176;2023-07-29T07:22:11;18.20;99.90
17442;DHT22;8838;50.144;8.176;2023-07-29T07:24:38;18.30;99.90
17442;DHT22;8838;50.144;8.176;2023-07-29T07:27:05;18.30;99.90
17442;DHT22;8838;50.144;8.176;2023-07-29T07:29:32;18.40;99.90
17442;DHT22;8838;50.144;8.176;2023-07-29T07:31:59;18.50;99.90
17442;DHT22;8838;50.144;8.176;2023-07-29T07:34:25;18.60;99.90
17442;DHT22;8838;50.144;8.176;2023-07-29T07:36:52;18.70;99.90
17442;DHT22;8838;50.144;8.176;2023-07-29T07:39:23;18.80;99.90
17442;DHT22;8838;50.144;8.176;2023-07-29T07:41:50;18.80;99.90
17442;DHT22;8838;50.144;8.176;2023-07-29T07:44:18;18.80;99.90
17442;DHT22;8838;50.144;8.176;2023-07-29T07:46:45;18.90;99.90
17442;DHT22;8838;50.144;8.176;2023-07-29T07:49:12;19.10;99.90
17442;DHT22;8838;50.144;8.176;2023-07-29T07:51:39;19.70;99.90
17442;DHT22;8838;50.144;8.176;2023-07-29T07:54:06;20.40;99.90
17442;DHT22;8838;50.144;8.176;2023-07-29T07:56:34;21.00;99.90
17442;DHT22;8838;50.144;8.176;2023-07-29T07:59:01;21.20;99.90
17442;DHT22;8838;50.144;8.176;2023-07-29T08:01:27;21.20;99.90
17442;DHT22;8838;50.144;8.176;2023-07-29T08:03:56;21.10;99.90
17442;DHT22;8838;50.144;8.176;2023-07-29T08:06:22;20.90;99.90
17442;DHT22;8838;50.144;8.176;2023-07-29T08:08:50;20.80;99.90
17442;DHT22;8838;50.144;8.176;2023-07-29T08:11:16;20.70;99.90
17442;DHT22;8838;50.144;8.176;2023-07-29T08:13:45;20.90;99.90
17442;DHT22;8838;50.144;8.176;2023-07-29T08:16:12;21.20;99.90
17442;DHT22;8838;50.144;8.176;2023-07-29T08:18:39;21.80;99.90
17442;DHT22;8838;50.144;8.176;2023-07-29T08:21:06;22.20;99.90
17442;DHT22;8838;50.144;8.176;2023-07-29T08:23:34;22.30;99.90
17442;DHT22;8838;50.144;8.176;2023-07-29T08:26:03;22.20;99.90
17442;DHT22;8838;50.144;8.176;2023-07-29T08:28:32;22.20;99.90
17442;DHT22;8838;50.144;8.176;2023-07-29T08:31:00;22.80;99.90
17442;DHT22;8838;50.144;8.176;2023-07-29T08:33:28;22.90;99.90
17442;DHT22;8838;50.144;8.176;2023-07-29T08:35:55;22.90;99.90
17442;DHT22;8838;50.144;8.176;2023-07-29T08:38:22;22.90;99.90
17442;DHT22;8838;50.144;8.176;2023-07-29T08:40:52;22.80;99.90
17442;DHT22;8838;50.144;8.176;2023-07-29T08:43:21;22.50;99.90
17442;DHT22;8838;50.144;8.176;2023-07-29T08:45:50;22.40;99.90
17442;DHT22;8838;50.144;8.176;2023-07-29T08:48:24;22.20;99.90
17442;DHT22;8838;50.144;8.176;2023-07-29T08:50:53;22.10;99.90
17442;DHT22;8838;50.144;8.176;2023-07-29T08:53:21;22.10;99.90
17442;DHT22;8838;50.144;8.176;2023-07-29T08:55:49;22.60;99.90
17442;DHT22;8838;50.144;8.176;2023-07-29T08:58:16;23.00;99.90
17442;DHT22;8838;50.144;8.176;2023-07-29T09:00:43;23.60;99.90
17442;DHT22;8838;50.144;8.176;2023-07-29T09:03:10;24.30;99.90
17442;DHT22;8838;50.144;8.176;2023-07-29T09:05:38;24.90;99.90
17442;DHT22;8838;50.144;8.176;2023-07-29T09:08:05;25.70;99.90
17442;DHT22;8838;50.144;8.176;2023-07-29T09:10:35;26.20;99.90
17442;DHT22;8838;50.144;8.176;2023-07-29T09:13:03;26.70;99.90
17442;DHT22;8838;50.144;8.176;2023-07-29T09:15:31;26.90;99.90
17442;DHT22;8838;50.144;8.176;2023-07-29T09:17:58;26.90;99.90
17442;DHT22;8838;50.144;8.176;2023-07-29T09:20:25;26.70;99.90
17442;DHT22;8838;50.144;8.176;2023-07-29T09:22:57;26.70;99.90
17442;DHT22;8838;50.144;8.176;2023-07-29T09:25:26;26.40;99.90
17442;DHT22;8838;50.144;8.176;2023-07-29T09:27:58;26.20;99.90
17442;DHT22;8838;50.144;8.176;2023-07-29T09:30:26;26.30;99.90
17442;DHT22;8838;50.144;8.176;2023-07-29T09:32:55;26.00;99.90
17442;DHT22;8838;50.144;8.176;2023-07-29T09:35:22;25.70;99.90
17442;DHT22;8838;50.144;8.176;2023-07-29T09:37:50;25.30;99.90
17442;DHT22;8838;50.144;8.176;2023-07-29T09:40:19;24.90;99.90
17442;DHT22;8838;50.144;8.176;2023-07-29T09:42:49;24.60;99.90
17442;DHT22;8838;50.144;8.176;2023-07-29T09:45:21;24.50;99.90
17442;DHT22;8838;50.144;8.176;2023-07-29T09:47:50;24.50;99.90
17442;DHT22;8838;50.144;8.176;2023-07-29T09:50:17;24.50;99.90
17442;DHT22;8838;50.144;8.176;2023-07-29T09:52:45;24.60;99.90
17442;DHT22;8838;50.144;8.176;2023-07-29T09:55:21;24.70;99.90
17442;DHT22;8838;50.144;8.176;2023-07-29T09:57:53;25.20;99.90
17442;DHT22;8838;50.144;8.176;2023-07-29T10:00:20;25.00;99.90
17442;DHT22;8838;50.144;8.176;2023-07-29T10:02:48;24.60;99.90
17442;DHT22;8838;50.144;8.176;2023-07-29T10:05:15;23.90;99.90
17442;DHT22;8838;50.144;8.176;2023-07-29T10:07:42;24.20;99.90
17442;DHT22;8838;50.144;8.176;2023-07-29T10:10:09;25.00;99.90
17442;DHT22;8838;50.144;8.176;2023-07-29T10:12:39;26.00;99.90
17442;DHT22;8838;50.144;8.176;2023-07-29T10:15:08;26.30;99.90
17442;DHT22;8838;50.144;8.176;2023-07-29T10:17:36;26.50;99.90
17442;DHT22;8838;50.144;8.176;2023-07-29T10:20:05;26.40;99.90
17442;DHT22;8838;50.144;8.176;2023-07-29T10:22:35;25.70;99.90
17442;DHT22;8838;50.144;8.176;2023-07-29T10:25:04;25.00;99.90
17442;DHT22;8838;50.144;8.176;2023-07-29T10:27:39;24.30;99.90
17442;DHT22;8838;50.144;8.176;2023-07-29T10:30:10;23.90;99.90
17442;DHT22;8838;50.144;8.176;2023-07-29T10:32:38;24.10;99.90
17442;DHT22;8838;50.144;8.176;2023-07-29T10:35:06;24.80;99.90
17442;DHT22;8838;50.144;8.176;2023-07-29T10:37:33;25.40;99.90
17442;DHT22;8838;50.144;8.176;2023-07-29T10:40:00;26.50;99.90
17442;DHT22;8838;50.144;8.176;2023-07-29T10:42:26;27.60;99.90
17442;DHT22;8838;50.144;8.176;2023-07-29T10:44:55;27.50;99.90
17442;DHT22;8838;50.144;8.176;2023-07-29T10:47:23;27.20;99.90
17442;DHT22;8838;50.144;8.176;2023-07-29T10:49:51;26.70;99.90
17442;DHT22;8838;50.144;8.176;2023-07-29T10:52:39;25.60;99.90
17442;DHT22;8838;50.144;8.176;2023-07-29T10:55:28;24.80;99.90
17442;DHT22;8838;50.144;8.176;2023-07-29T10:58:06;24.30;99.90
17442;DHT22;8838;50.144;8.176;2023-07-29T11:00:35;23.80;99.90
17442;DHT22;8838;50.144;8.176;2023-07-29T11:03:03;23.60;99.90
17442;DHT22;8838;50.144;8.176;2023-07-29T11:05:48;23.40;99.90
17442;DHT22;8838;50.144;8.176;2023-07-29T11:08:23;23.10;99.90
17442;DHT22;8838;50.144;8.176;2023-07-29T11:11:01;22.70;99.90
17442;DHT22;8838;50.144;8.176;2023-07-29T11:13:28;22.40;99.90
17442;DHT22;8838;50.144;8.176;2023-07-29T11:15:58;22.10;99.90
17442;DHT22;8838;50.144;8.176;2023-07-29T11:18:27;22.00;99.90
17442;DHT22;8838;50.144;8.176;2023-07-29T11:20:56;21.90;99.90
17442;DHT22;8838;50.144;8.176;2023-07-29T11:23:28;21.80;99.90
17442;DHT22;8838;50.144;8.176;2023-07-29T11:25:55;21.70;99.90
17442;DHT22;8838;50.144;8.176;2023-07-29T11:28:22;21.70;99.90
17442;DHT22;8838;50.144;8.176;2023-07-29T11:30:49;21.70;99.90
17442;DHT22;8838;50.144;8.176;2023-07-29T11:33:19;21.80;99.90
17442;DHT22;8838;50.144;8.176;2023-07-29T11:35:46;22.80;99.90
17442;DHT22;8838;50.144;8.176;2023-07-29T11:38:15;24.20;99.90
17442;DHT22;8838;50.144;8.176;2023-07-29T11:40:42;24.70;99.90
17442;DHT22;8838;50.144;8.176;2023-07-29T11:43:09;24.70;99.90
17442;DHT22;8838;50.144;8.176;2023-07-29T11:45:40;24.80;99.90
17442;DHT22;8838;50.144;8.176;2023-07-29T11:48:09;25.40;99.90
17442;DHT22;8838;50.144;8.176;2023-07-29T11:50:37;25.80;99.90
17442;DHT22;8838;50.144;8.176;2023-07-29T11:53:05;26.00;99.90
17442;DHT22;8838;50.144;8.176;2023-07-29T11:55:33;26.80;99.90
17442;DHT22;8838;50.144;8.176;2023-07-29T11:58:01;26.80;99.90
17442;DHT22;8838;50.144;8.176;2023-07-29T12:00:28;26.80;99.90
17442;DHT22;8838;50.144;8.176;2023-07-29T12:02:55;26.70;99.90
17442;DHT22;8838;50.144;8.176;2023-07-29T12:05:23;26.50;99.90
17442;DHT22;8838;50.144;8.176;2023-07-29T12:07:52;26.30;99.90
17442;DHT22;8838;50.144;8.176;2023-07-29T12:10:19;25.90;99.90
17442;DHT22;8838;50.144;8.176;2023-07-29T12:12:48;25.60;99.90
17442;DHT22;8838;50.144;8.176;2023-07-29T12:15:23;25.10;99.90
17442;DHT22;8838;50.144;8.176;2023-07-29T12:17:53;24.60;99.90
17442;DHT22;8838;50.144;8.176;2023-07-29T12:20:20;24.40;99.90
17442;DHT22;8838;50.144;8.176;2023-07-29T12:22:53;24.10;99.90
17442;DHT22;8838;50.144;8.176;2023-07-29T12:25:20;23.90;99.90
17442;DHT22;8838;50.144;8.176;2023-07-29T12:27:47;23.70;99.90
17442;DHT22;8838;50.144;8.176;2023-07-29T12:30:14;23.30;99.90
17442;DHT22;8838;50.144;8.176;2023-07-29T12:32:44;23.20;99.90
17442;DHT22;8838;50.144;8.176;2023-07-29T12:35:12;23.00;99.90
17442;DHT22;8838;50.144;8.176;2023-07-29T12:37:39;23.00;99.90
17442;DHT22;8838;50.144;8.176;2023-07-29T12:40:21;22.90;99.90
17442;DHT22;8838;50.144;8.176;2023-07-29T12:42:48;22.90;99.90
17442;DHT22;8838;50.144;8.176;2023-07-29T12:45:17;22.90;99.90
17442;DHT22;8838;50.144;8.176;2023-07-29T12:47:45;22.80;99.90
17442;DHT22;8838;50.144;8.176;2023-07-29T12:50:11;22.80;99.90
17442;DHT22;8838;50.144;8.176;2023-07-29T12:52:38;22.80;99.90
17442;DHT22;8838;50.144;8.176;2023-07-29T12:55:06;22.90;99.90
17442;DHT22;8838;50.144;8.176;2023-07-29T12:57:35;22.90;99.90
17442;DHT22;8838;50.144;8.176;2023-07-29T13:00:02;23.00;99.90
17442;DHT22;8838;50.144;8.176;2023-07-29T13:02:29;23.10;99.90
17442;DHT22;8838;50.144;8.176;2023-07-29T13:04:56;23.20;99.90
17442;DHT22;8838;50.144;8.176;2023-07-29T13:07:23;23.30;99.90
17442;DHT22;8838;50.144;8.176;2023-07-29T13:09:49;23.60;99.90
17442;DHT22;8838;50.144;8.176;2023-07-29T13:12:16;23.80;99.90
17442;DHT22;8838;50.144;8.176;2023-07-29T13:14:47;24.10;99.90
17442;DHT22;8838;50.144;8.176;2023-07-29T13:17:14;24.30;99.90
17442;DHT22;8838;50.144;8.176;2023-07-29T13:19:41;24.50;99.90
17442;DHT22;8838;50.144;8.176;2023-07-29T13:22:07;24.70;99.90
17442;DHT22;8838;50.144;8.176;2023-07-29T13:24:34;24.70;99.90
17442;DHT22;8838;50.144;8.176;2023-07-29T13:27:03;24.90;99.90
17442;DHT22;8838;50.144;8.176;2023-07-29T13:29:30;25.10;99.90
17442;DHT22;8838;50.144;8.176;2023-07-29T13:31:58;24.90;99.90
17442;DHT22;8838;50.144;8.176;2023-07-29T13:34:24;24.60;99.90
17442;DHT22;8838;50.144;8.176;2023-07-29T13:36:51;24.50;99.90
17442;DHT22;8838;50.144;8.176;2023-07-29T13:39:18;24.70;99.90
17442;DHT22;8838;50.144;8.176;2023-07-29T13:41:46;25.20;99.90
17442;DHT22;8838;50.144;8.176;2023-07-29T13:44:13;25.40;99.90
17442;DHT22;8838;50.144;8.176;2023-07-29T13:47:05;25.50;99.90
17442;DHT22;8838;50.144;8.176;2023-07-29T13:49:32;25.60;99.90
17442;DHT22;8838;50.144;8.176;2023-07-29T13:51:58;25.80;99.90
17442;DHT22;8838;50.144;8.176;2023-07-29T13:54:25;25.80;99.90
17442;DHT22;8838;50.144;8.176;2023-07-29T13:56:54;25.60;99.90
17442;DHT22;8838;50.144;8.176;2023-07-29T13:59:20;25.60;99.90
17442;DHT22;8838;50.144;8.176;2023-07-29T14:01:47;25.90;99.90
17442;DHT22;8838;50.144;8.176;2023-07-29T14:04:15;25.90;99.90
17442;DHT22;8838;50.144;8.176;2023-07-29T14:06:42;25.20;99.90
17442;DHT22;8838;50.144;8.176;2023-07-29T14:09:11;25.40;99.90
17442;DHT22;8838;50.144;8.176;2023-07-29T14:11:37;25.40;99.90
17442;DHT22;8838;50.144;8.176;2023-07-29T14:14:04;25.30;99.90
17442;DHT22;8838;50.144;8.176;2023-07-29T14:16:31;25.20;99.90
17442;DHT22;8838;50.144;8.176;2023-07-29T14:18:57;25.00;99.90
17442;DHT22;8838;50.144;8.176;2023-07-29T14:21:26;25.00;99.90
17442;DHT22;8838;50.144;8.176;2023-07-29T14:23:52;25.20;99.90
17442;DHT22;8838;50.144;8.176;2023-07-29T14:26:19;25.40;99.90
17442;DHT22;8838;50.144;8.176;2023-07-29T14:28:46;25.50;99.90
17442;DHT22;8838;50.144;8.176;2023-07-29T14:31:12;25.50;99.90
17442;DHT22;8838;50.144;8.176;2023-07-29T14:33:42;25.20;99.90
17442;DHT22;8838;50.144;8.176;2023-07-29T14:36:09;25.10;99.90
17442;DHT22;8838;50.144;8.176;2023-07-29T14:38:37;25.00;99.90
17442;DHT22;8838;50.144;8.176;2023-07-29T14:41:04;24.80;99.90
17442;DHT22;8838;50.144;8.176;2023-07-29T14:43:31;25.00;99.90
17442;DHT22;8838;50.144;8.176;2023-07-29T14:45:57;25.30;99.90
17442;DHT22;8838;50.144;8.176;2023-07-29T14:48:24;25.40;99.90
17442;DHT22;8838;50.144;8.176;2023-07-29T14:50:51;25.60;99.90
17442;DHT22;8838;50.144;8.176;2023-07-29T14:53:17;25.90;99.90
17442;DHT22;8838;50.144;8.176;2023-07-29T14:55:46;25.80;99.90
17442;DHT22;8838;50.144;8.176;2023-07-29T14:58:12;25.50;99.90
17442;DHT22;8838;50.144;8.176;2023-07-29T15:00:39;25.30;99.90
17442;DHT22;8838;50.144;8.176;2023-07-29T15:03:06;25.60;99.90
17442;DHT22;8838;50.144;8.176;2023-07-29T15:05:33;25.50;99.90
17442;DHT22;8838;50.144;8.176;2023-07-29T15:08:00;25.10;99.90
17442;DHT22;8838;50.144;8.176;2023-07-29T15:10:27;24.90;99.90
17442;DHT22;8838;50.144;8.176;2023-07-29T15:12:56;24.70;99.90
17442;DHT22;8838;50.144;8.176;2023-07-29T15:15:22;24.90;99.90
17442;DHT22;8838;50.144;8.176;2023-07-29T15:17:49;25.20;99.90
17442;DHT22;8838;50.144;8.176;2023-07-29T15:20:16;25.60;99.90
17442;DHT22;8838;50.144;8.176;2023-07-29T15:22:43;25.90;99.90
17442;DHT22;8838;50.144;8.176;2023-07-29T15:25:10;26.00;99.90
17442;DHT22;8838;50.144;8.176;2023-07-29T15:27:37;26.00;99.90
17442;DHT22;8838;50.144;8.176;2023-07-29T15:30:07;25.80;99.90
17442;DHT22;8838;50.144;8.176;2023-07-29T15:32:34;25.80;99.90
17442;DHT22;8838;50.144;8.176;2023-07-29T15:35:01;26.00;99.90
17442;DHT22;8838;50.144;8.176;2023-07-29T15:37:27;26.20;99.90
17442;DHT22;8838;50.144;8.176;2023-07-29T15:39:54;26.10;99.90
17442;DHT22;8838;50.144;8.176;2023-07-29T15:42:23;25.90;99.90
17442;DHT22;8838;50.144;8.176;2023-07-29T15:44:50;25.40;99.90
17442;DHT22;8838;50.144;8.176;2023-07-29T15:47:18;25.30;99.90
17442;DHT22;8838;50.144;8.176;2023-07-29T15:49:45;25.10;99.90